sensor_id;sensor_type;location;lat;lon;timestamp;P1;durP1;ratioP1;P2;durP2;ratioP2
40164;SDS011;25882;51.120;17.248;2022-07-10T00:01:38;5.53;;;2.88;;
40164;SDS011;25882;51.120;17.248;2022-07-10T00:04:04;5.72;;;2.80;;
40164;SDS011;25882;51.120;17.248;2022-07-10T00:06:30;4.68;;;2.50;;
40164;SDS011;25882;51.120;17.248;2022-07-10T00:08:57;3.88;;;2.60;;
40164;SDS011;25882;51.120;17.248;2022-07-10T00:11:23;3.50;;;2.60;;
40164;SDS011;25882;51.120;17.248;2022-07-10T00:13:49;8.00;;;3.03;;
40164;SDS011;25882;51.120;17.248;2022-07-10T00:16:15;4.38;;;2.20;;
40164;SDS011;25882;51.120;17.248;2022-07-10T00:18:42;3.50;;;2.47;;
40164;SDS011;25882;51.120;17.248;2022-07-10T00:21:08;4.43;;;2.90;;
40164;SDS011;25882;51.120;17.248;2022-07-10T00:23:35;5.72;;;2.60;;
40164;SDS011;25882;51.120;17.248;2022-07-10T00:26:00;4.50;;;2.42;;
40164;SDS011;25882;51.120;17.248;2022-07-10T00:28:26;4.95;;;2.78;;
40164;SDS011;25882;51.120;17.248;2022-07-10T00:30:53;6.43;;;2.58;;
40164;SDS011;25882;51.120;17.248;2022-07-10T00:33:19;5.15;;;2.63;;
40164;SDS011;25882;51.120;17.248;2022-07-10T00:35:46;4.93;;;2.53;;
40164;SDS011;25882;51.120;17.248;2022-07-10T00:38:13;7.28;;;3.05;;
40164;SDS011;25882;51.120;17.248;2022-07-10T00:40:39;4.88;;;3.33;;
40164;SDS011;25882;51.120;17.248;2022-07-10T00:43:07;6.70;;;3.22;;
40164;SDS011;25882;51.120;17.248;2022-07-10T00:45:34;5.63;;;3.33;;
40164;SDS011;25882;51.120;17.248;2022-07-10T00:48:00;3.42;;;2.58;;
40164;SDS011;25882;51.120;17.248;2022-07-10T00:50:26;6.05;;;2.90;;
40164;SDS011;25882;51.120;17.248;2022-07-10T00:52:54;5.45;;;2.90;;
40164;SDS011;25882;51.120;17.248;2022-07-10T00:55:21;4.28;;;2.90;;
40164;SDS011;25882;51.120;17.248;2022-07-10T00:57:47;6.63;;;3.00;;
40164;SDS011;25882;51.120;17.248;2022-07-10T01:00:14;7.93;;;3.65;;
40164;SDS011;25882;51.120;17.248;2022-07-10T01:02:41;6.97;;;3.45;;
40164;SDS011;25882;51.120;17.248;2022-07-10T01:05:08;4.18;;;3.35;;
40164;SDS011;25882;51.120;17.248;2022-07-10T01:07:34;5.82;;;3.25;;
40164;SDS011;25882;51.120;17.248;2022-07-10T01:10:03;6.70;;;3.35;;
40164;SDS011;25882;51.120;17.248;2022-07-10T01:12:30;6.95;;;3.50;;
40164;SDS011;25882;51.120;17.248;2022-07-10T01:14:57;7.25;;;3.80;;
40164;SDS011;25882;51.120;17.248;2022-07-10T01:17:24;6.32;;;3.25;;
40164;SDS011;25882;51.120;17.248;2022-07-10T01:19:50;4.60;;;3.33;;
40164;SDS011;25882;51.120;17.248;2022-07-10T01:22:17;5.00;;;3.45;;
40164;SDS011;25882;51.120;17.248;2022-07-10T01:24:43;6.30;;;3.92;;
40164;SDS011;25882;51.120;17.248;2022-07-10T01:27:09;5.68;;;3.45;;
40164;SDS011;25882;51.120;17.248;2022-07-10T01:29:36;5.55;;;3.47;;
40164;SDS011;25882;51.120;17.248;2022-07-10T01:32:02;5.65;;;3.55;;
40164;SDS011;25882;51.120;17.248;2022-07-10T01:34:28;5.72;;;3.28;;
40164;SDS011;25882;51.120;17.248;2022-07-10T01:36:55;5.35;;;3.83;;
40164;SDS011;25882;51.120;17.248;2022-07-10T01:39:22;9.68;;;3.83;;
40164;SDS011;25882;51.120;17.248;2022-07-10T01:41:48;7.60;;;3.67;;
40164;SDS011;25882;51.120;17.248;2022-07-10T01:44:15;9.93;;;4.28;;
40164;SDS011;25882;51.120;17.248;2022-07-10T01:46:44;7.85;;;4.55;;
40164;SDS011;25882;51.120;17.248;2022-07-10T01:49:11;4.70;;;3.38;;
40164;SDS011;25882;51.120;17.248;2022-07-10T01:51:37;10.23;;;4.13;;
40164;SDS011;25882;51.120;17.248;2022-07-10T01:54:03;5.10;;;3.65;;
40164;SDS011;25882;51.120;17.248;2022-07-10T01:56:30;7.53;;;3.65;;
40164;SDS011;25882;51.120;17.248;2022-07-10T01:58:58;5.50;;;4.05;;
40164;SDS011;25882;51.120;17.248;2022-07-10T02:04:17;8.85;;;4.70;;
40164;SDS011;25882;51.120;17.248;2022-07-10T02:07:02;8.05;;;4.82;;
40164;SDS011;25882;51.120;17.248;2022-07-10T02:09:29;9.85;;;4.85;;
40164;SDS011;25882;51.120;17.248;2022-07-10T02:11:56;7.30;;;4.90;;
40164;SDS011;25882;51.120;17.248;2022-07-10T02:14:22;7.40;;;4.55;;
40164;SDS011;25882;51.120;17.248;2022-07-10T02:16:49;8.77;;;4.65;;
40164;SDS011;25882;51.120;17.248;2022-07-10T02:19:15;8.25;;;5.45;;
40164;SDS011;25882;51.120;17.248;2022-07-10T02:21:41;8.65;;;5.05;;
40164;SDS011;25882;51.120;17.248;2022-07-10T02:24:07;8.98;;;5.65;;
40164;SDS011;25882;51.120;17.248;2022-07-10T02:26:33;8.77;;;5.60;;
40164;SDS011;25882;51.120;17.248;2022-07-10T02:29:00;8.00;;;5.97;;
40164;SDS011;25882;51.120;17.248;2022-07-10T02:31:27;10.38;;;6.03;;
40164;SDS011;25882;51.120;17.248;2022-07-10T02:33:53;8.15;;;5.35;;
40164;SDS011;25882;51.120;17.248;2022-07-10T02:36:19;9.13;;;5.10;;
40164;SDS011;25882;51.120;17.248;2022-07-10T02:38:45;8.45;;;5.35;;
40164;SDS011;25882;51.120;17.248;2022-07-10T02:41:11;9.70;;;6.38;;
40164;SDS011;25882;51.120;17.248;2022-07-10T02:43:37;8.98;;;4.40;;
40164;SDS011;25882;51.120;17.248;2022-07-10T02:46:05;8.40;;;4.68;;
40164;SDS011;25882;51.120;17.248;2022-07-10T02:48:31;7.55;;;4.68;;
40164;SDS011;25882;51.120;17.248;2022-07-10T02:50:57;6.72;;;3.97;;
40164;SDS011;25882;51.120;17.248;2022-07-10T02:53:23;5.72;;;4.22;;
40164;SDS011;25882;51.120;17.248;2022-07-10T02:55:49;8.25;;;3.70;;
40164;SDS011;25882;51.120;17.248;2022-07-10T02:58:16;6.35;;;4.05;;
40164;SDS011;25882;51.120;17.248;2022-07-10T03:00:43;5.78;;;3.72;;
40164;SDS011;25882;51.120;17.248;2022-07-10T03:03:11;8.38;;;3.97;;
40164;SDS011;25882;51.120;17.248;2022-07-10T03:05:37;5.43;;;3.72;;
40164;SDS011;25882;51.120;17.248;2022-07-10T03:08:04;6.80;;;3.35;;
40164;SDS011;25882;51.120;17.248;2022-07-10T03:10:30;5.78;;;3.60;;
40164;SDS011;25882;51.120;17.248;2022-07-10T03:12:56;4.15;;;3.30;;
40164;SDS011;25882;51.120;17.248;2022-07-10T03:15:22;5.85;;;3.58;;
40164;SDS011;25882;51.120;17.248;2022-07-10T03:17:48;6.85;;;3.80;;
40164;SDS011;25882;51.120;17.248;2022-07-10T03:20:16;6.63;;;3.50;;
40164;SDS011;25882;51.120;17.248;2022-07-10T03:22:42;4.63;;;2.80;;
40164;SDS011;25882;51.120;17.248;2022-07-10T03:25:09;5.50;;;2.92;;
40164;SDS011;25882;51.120;17.248;2022-07-10T03:27:35;5.65;;;3.53;;
40164;SDS011;25882;51.120;17.248;2022-07-10T03:30:01;5.97;;;3.30;;
40164;SDS011;25882;51.120;17.248;2022-07-10T03:32:28;5.93;;;3.53;;
40164;SDS011;25882;51.120;17.248;2022-07-10T03:34:54;7.30;;;3.53;;
40164;SDS011;25882;51.120;17.248;2022-07-10T03:37:22;5.22;;;3.05;;
40164;SDS011;25882;51.120;17.248;2022-07-10T03:39:48;8.55;;;3.88;;
40164;SDS011;25882;51.120;17.248;2022-07-10T03:42:14;7.10;;;3.85;;
40164;SDS011;25882;51.120;17.248;2022-07-10T03:44:41;6.13;;;3.40;;
40164;SDS011;25882;51.120;17.248;2022-07-10T03:47:07;6.55;;;3.50;;
40164;SDS011;25882;51.120;17.248;2022-07-10T03:49:33;8.48;;;3.95;;
40164;SDS011;25882;51.120;17.248;2022-07-10T03:51:59;5.03;;;2.67;;
40164;SDS011;25882;51.120;17.248;2022-07-10T03:54:28;3.63;;;2.53;;
40164;SDS011;25882;51.120;17.248;2022-07-10T03:56:54;5.90;;;2.60;;
40164;SDS011;25882;51.120;17.248;2022-07-10T03:59:39;6.40;;;2.78;;
40164;SDS011;25882;51.120;17.248;2022-07-10T04:02:05;5.50;;;2.20;;
40164;SDS011;25882;51.120;17.248;2022-07-10T04:04:31;4.60;;;2.63;;
40164;SDS011;25882;51.120;17.248;2022-07-10T04:06:58;3.17;;;1.95;;
40164;SDS011;25882;51.120;17.248;2022-07-10T04:09:24;4.93;;;2.50;;
40164;SDS011;25882;51.120;17.248;2022-07-10T04:11:51;5.88;;;2.47;;
40164;SDS011;25882;51.120;17.248;2022-07-10T04:14:18;7.70;;;2.10;;
40164;SDS011;25882;51.120;17.248;2022-07-10T04:16:44;6.82;;;2.35;;
40164;SDS011;25882;51.120;17.248;2022-07-10T04:19:10;6.18;;;2.15;;
40164;SDS011;25882;51.120;17.248;2022-07-10T04:21:37;6.55;;;2.38;;
40164;SDS011;25882;51.120;17.248;2022-07-10T04:24:03;3.47;;;2.20;;
40164;SDS011;25882;51.120;17.248;2022-07-10T04:26:30;4.10;;;1.50;;
40164;SDS011;25882;51.120;17.248;2022-07-10T04:28:57;3.60;;;1.58;;
40164;SDS011;25882;51.120;17.248;2022-07-10T04:31:23;4.15;;;1.10;;
40164;SDS011;25882;51.120;17.248;2022-07-10T04:33:49;3.28;;;1.48;;
40164;SDS011;25882;51.120;17.248;2022-07-10T04:36:16;3.28;;;1.42;;
40164;SDS011;25882;51.120;17.248;2022-07-10T04:38:42;5.90;;;1.33;;
40164;SDS011;25882;51.120;17.248;2022-07-10T04:41:08;5.28;;;1.30;;
40164;SDS011;25882;51.120;17.248;2022-07-10T04:43:34;3.25;;;1.45;;
40164;SDS011;25882;51.120;17.248;2022-07-10T04:46:02;2.60;;;0.90;;
40164;SDS011;25882;51.120;17.248;2022-07-10T04:48:28;8.10;;;1.65;;
40164;SDS011;25882;51.120;17.248;2022-07-10T04:50:55;7.95;;;1.38;;
40164;SDS011;25882;51.120;17.248;2022-07-10T04:53:21;3.85;;;1.33;;
40164;SDS011;25882;51.120;17.248;2022-07-10T04:55:47;4.63;;;1.38;;
40164;SDS011;25882;51.120;17.248;2022-07-10T04:58:13;2.72;;;1.30;;
40164;SDS011;25882;51.120;17.248;2022-07-10T05:00:39;3.92;;;1.13;;
40164;SDS011;25882;51.120;17.248;2022-07-10T05:03:07;6.65;;;1.67;;
40164;SDS011;25882;51.120;17.248;2022-07-10T05:05:34;6.07;;;1.67;;
40164;SDS011;25882;51.120;17.248;2022-07-10T05:08:00;3.15;;;1.33;;
40164;SDS011;25882;51.120;17.248;2022-07-10T05:10:26;3.75;;;1.70;;
40164;SDS011;25882;51.120;17.248;2022-07-10T05:12:53;5.35;;;1.30;;
40164;SDS011;25882;51.120;17.248;2022-07-10T05:15:19;3.50;;;1.40;;
40164;SDS011;25882;51.120;17.248;2022-07-10T05:17:45;4.22;;;1.70;;
40164;SDS011;25882;51.120;17.248;2022-07-10T05:20:13;3.30;;;1.73;;
40164;SDS011;25882;51.120;17.248;2022-07-10T05:22:39;3.72;;;1.30;;
40164;SDS011;25882;51.120;17.248;2022-07-10T05:25:05;3.55;;;1.13;;
40164;SDS011;25882;51.120;17.248;2022-07-10T05:27:31;6.78;;;1.60;;
40164;SDS011;25882;51.120;17.248;2022-07-10T05:29:57;5.22;;;1.55;;
40164;SDS011;25882;51.120;17.248;2022-07-10T05:32:23;4.53;;;1.50;;
40164;SDS011;25882;51.120;17.248;2022-07-10T05:34:50;6.03;;;1.42;;
40164;SDS011;25882;51.120;17.248;2022-07-10T05:37:18;4.32;;;1.35;;
40164;SDS011;25882;51.120;17.248;2022-07-10T05:39:44;5.13;;;1.42;;
40164;SDS011;25882;51.120;17.248;2022-07-10T05:42:10;6.03;;;1.33;;
40164;SDS011;25882;51.120;17.248;2022-07-10T05:44:37;7.60;;;1.48;;
40164;SDS011;25882;51.120;17.248;2022-07-10T05:47:03;4.13;;;1.40;;
40164;SDS011;25882;51.120;17.248;2022-07-10T05:49:29;5.72;;;1.65;;
40164;SDS011;25882;51.120;17.248;2022-07-10T05:51:57;5.25;;;1.70;;
40164;SDS011;25882;51.120;17.248;2022-07-10T05:54:24;3.10;;;1.20;;
40164;SDS011;25882;51.120;17.248;2022-07-10T05:56:51;4.25;;;1.40;;
40164;SDS011;25882;51.120;17.248;2022-07-10T05:59:17;6.90;;;1.48;;
40164;SDS011;25882;51.120;17.248;2022-07-10T06:01:43;4.03;;;1.70;;
40164;SDS011;25882;51.120;17.248;2022-07-10T06:04:10;4.15;;;1.17;;
40164;SDS011;25882;51.120;17.248;2022-07-10T06:06:36;5.03;;;1.38;;
40164;SDS011;25882;51.120;17.248;2022-07-10T06:09:02;4.75;;;1.60;;
40164;SDS011;25882;51.120;17.248;2022-07-10T06:11:30;4.53;;;1.13;;
40164;SDS011;25882;51.120;17.248;2022-07-10T06:13:56;4.05;;;1.25;;
40164;SDS011;25882;51.120;17.248;2022-07-10T06:16:22;6.43;;;0.82;;
40164;SDS011;25882;51.120;17.248;2022-07-10T06:18:49;3.05;;;0.90;;
40164;SDS011;25882;51.120;17.248;2022-07-10T06:21:15;5.15;;;1.40;;
40164;SDS011;25882;51.120;17.248;2022-07-10T06:23:47;5.25;;;1.98;;
40164;SDS011;25882;51.120;17.248;2022-07-10T06:26:13;3.22;;;0.85;;
40164;SDS011;25882;51.120;17.248;2022-07-10T06:28:40;4.13;;;1.00;;
40164;SDS011;25882;51.120;17.248;2022-07-10T06:31:06;3.50;;;1.10;;
40164;SDS011;25882;51.120;17.248;2022-07-10T06:33:33;7.32;;;1.23;;
40164;SDS011;25882;51.120;17.248;2022-07-10T06:36:01;3.15;;;0.80;;
40164;SDS011;25882;51.120;17.248;2022-07-10T06:38:27;5.32;;;0.90;;
40164;SDS011;25882;51.120;17.248;2022-07-10T06:40:53;3.03;;;0.90;;
40164;SDS011;25882;51.120;17.248;2022-07-10T06:43:19;3.08;;;0.80;;
40164;SDS011;25882;51.120;17.248;2022-07-10T06:45:47;6.38;;;0.90;;
40164;SDS011;25882;51.120;17.248;2022-07-10T06:48:13;4.85;;;1.00;;
40164;SDS011;25882;51.120;17.248;2022-07-10T06:50:40;4.53;;;0.80;;
40164;SDS011;25882;51.120;17.248;2022-07-10T06:53:06;4.22;;;1.02;;
40164;SDS011;25882;51.120;17.248;2022-07-10T06:55:33;3.83;;;1.10;;
40164;SDS011;25882;51.120;17.248;2022-07-10T06:57:59;4.35;;;1.02;;
40164;SDS011;25882;51.120;17.248;2022-07-10T07:00:27;3.65;;;1.00;;
40164;SDS011;25882;51.120;17.248;2022-07-10T07:02:55;6.30;;;1.20;;
40164;SDS011;25882;51.120;17.248;2022-07-10T07:05:21;5.38;;;1.08;;
40164;SDS011;25882;51.120;17.248;2022-07-10T07:07:47;6.97;;;1.20;;
40164;SDS011;25882;51.120;17.248;2022-07-10T07:10:14;4.10;;;1.30;;
40164;SDS011;25882;51.120;17.248;2022-07-10T07:12:40;4.20;;;0.80;;
40164;SDS011;25882;51.120;17.248;2022-07-10T07:15:06;3.72;;;1.00;;
40164;SDS011;25882;51.120;17.248;2022-07-10T07:17:38;3.47;;;1.50;;
40164;SDS011;25882;51.120;17.248;2022-07-10T07:20:25;5.80;;;2.25;;
40164;SDS011;25882;51.120;17.248;2022-07-10T07:23:10;3.20;;;1.05;;
40164;SDS011;25882;51.120;17.248;2022-07-10T07:25:36;7.25;;;1.63;;
40164;SDS011;25882;51.120;17.248;2022-07-10T07:28:03;5.75;;;1.95;;
40164;SDS011;25882;51.120;17.248;2022-07-10T07:30:30;5.38;;;1.45;;
40164;SDS011;25882;51.120;17.248;2022-07-10T07:32:56;1.63;;;0.50;;
40164;SDS011;25882;51.120;17.248;2022-07-10T07:35:22;2.72;;;1.10;;
40164;SDS011;25882;51.120;17.248;2022-07-10T07:37:50;3.60;;;0.88;;
40164;SDS011;25882;51.120;17.248;2022-07-10T07:40:18;3.70;;;0.90;;
40164;SDS011;25882;51.120;17.248;2022-07-10T07:42:46;2.92;;;0.95;;
40164;SDS011;25882;51.120;17.248;2022-07-10T07:45:13;2.63;;;1.08;;
40164;SDS011;25882;51.120;17.248;2022-07-10T07:47:42;6.70;;;1.42;;
40164;SDS011;25882;51.120;17.248;2022-07-10T07:50:10;3.53;;;0.90;;
40164;SDS011;25882;51.120;17.248;2022-07-10T07:52:37;3.63;;;0.70;;
40164;SDS011;25882;51.120;17.248;2022-07-10T07:55:05;5.95;;;1.00;;
40164;SDS011;25882;51.120;17.248;2022-07-10T07:57:31;3.85;;;0.85;;
40164;SDS011;25882;51.120;17.248;2022-07-10T07:59:58;4.32;;;1.00;;
40164;SDS011;25882;51.120;17.248;2022-07-10T08:02:24;7.38;;;1.20;;
40164;SDS011;25882;51.120;17.248;2022-07-10T08:04:50;4.07;;;0.85;;
40164;SDS011;25882;51.120;17.248;2022-07-10T08:07:16;3.63;;;1.00;;
40164;SDS011;25882;51.120;17.248;2022-07-10T08:09:42;3.63;;;0.95;;
40164;SDS011;25882;51.120;17.248;2022-07-10T08:12:11;3.58;;;1.02;;
40164;SDS011;25882;51.120;17.248;2022-07-10T08:14:38;3.22;;;1.00;;
40164;SDS011;25882;51.120;17.248;2022-07-10T08:17:04;4.10;;;0.90;;
40164;SDS011;25882;51.120;17.248;2022-07-10T08:19:30;3.78;;;0.90;;
40164;SDS011;25882;51.120;17.248;2022-07-10T08:21:56;3.10;;;0.80;;
40164;SDS011;25882;51.120;17.248;2022-07-10T08:24:22;4.03;;;0.90;;
40164;SDS011;25882;51.120;17.248;2022-07-10T08:26:48;5.35;;;1.00;;
40164;SDS011;25882;51.120;17.248;2022-07-10T08:29:17;2.15;;;0.95;;
40164;SDS011;25882;51.120;17.248;2022-07-10T08:31:44;5.20;;;1.52;;
40164;SDS011;25882;51.120;17.248;2022-07-10T08:34:11;2.45;;;0.75;;
40164;SDS011;25882;51.120;17.248;2022-07-10T08:36:37;3.80;;;0.95;;
40164;SDS011;25882;51.120;17.248;2022-07-10T08:39:03;3.40;;;0.90;;
40164;SDS011;25882;51.120;17.248;2022-07-10T08:41:30;4.05;;;0.80;;
40164;SDS011;25882;51.120;17.248;2022-07-10T08:43:57;5.38;;;0.93;;
40164;SDS011;25882;51.120;17.248;2022-07-10T08:46:25;2.25;;;0.85;;
40164;SDS011;25882;51.120;17.248;2022-07-10T08:48:53;4.82;;;1.17;;
40164;SDS011;25882;51.120;17.248;2022-07-10T08:51:21;1.85;;;0.70;;
40164;SDS011;25882;51.120;17.248;2022-07-10T08:53:51;1.83;;;0.60;;
40164;SDS011;25882;51.120;17.248;2022-07-10T08:56:18;4.03;;;0.90;;
40164;SDS011;25882;51.120;17.248;2022-07-10T08:58:44;5.40;;;0.90;;
40164;SDS011;25882;51.120;17.248;2022-07-10T09:01:11;1.95;;;1.00;;
40164;SDS011;25882;51.120;17.248;2022-07-10T09:03:39;2.22;;;0.68;;
40164;SDS011;25882;51.120;17.248;2022-07-10T09:06:05;3.45;;;0.70;;
40164;SDS011;25882;51.120;17.248;2022-07-10T09:08:32;3.67;;;0.90;;
40164;SDS011;25882;51.120;17.248;2022-07-10T09:11:12;3.10;;;1.00;;
40164;SDS011;25882;51.120;17.248;2022-07-10T09:13:48;1.67;;;1.05;;
40164;SDS011;25882;51.120;17.248;2022-07-10T09:16:19;4.38;;;1.20;;
40164;SDS011;25882;51.120;17.248;2022-07-10T09:18:49;2.00;;;0.80;;
40164;SDS011;25882;51.120;17.248;2022-07-10T09:21:16;3.00;;;0.95;;
40164;SDS011;25882;51.120;17.248;2022-07-10T09:23:42;2.65;;;0.70;;
40164;SDS011;25882;51.120;17.248;2022-07-10T09:26:08;1.33;;;0.60;;
40164;SDS011;25882;51.120;17.248;2022-07-10T09:28:34;3.67;;;0.70;;
40164;SDS011;25882;51.120;17.248;2022-07-10T09:31:01;3.15;;;0.60;;
40164;SDS011;25882;51.120;17.248;2022-07-10T09:33:27;2.40;;;0.55;;
40164;SDS011;25882;51.120;17.248;2022-07-10T09:36:03;1.30;;;0.60;;
40164;SDS011;25882;51.120;17.248;2022-07-10T09:38:31;1.88;;;0.55;;
40164;SDS011;25882;51.120;17.248;2022-07-10T09:41:20;5.53;;;0.60;;
40164;SDS011;25882;51.120;17.248;2022-07-10T09:43:57;1.45;;;0.40;;
40164;SDS011;25882;51.120;17.248;2022-07-10T09:46:34;1.98;;;1.42;;
40164;SDS011;25882;51.120;17.248;2022-07-10T09:49:04;1.73;;;0.50;;
40164;SDS011;25882;51.120;17.248;2022-07-10T09:51:33;2.67;;;0.70;;
40164;SDS011;25882;51.120;17.248;2022-07-10T09:54:02;2.30;;;0.60;;
40164;SDS011;25882;51.120;17.248;2022-07-10T09:56:43;2.42;;;0.57;;
40164;SDS011;25882;51.120;17.248;2022-07-10T09:59:14;3.70;;;0.47;;
40164;SDS011;25882;51.120;17.248;2022-07-10T10:01:44;3.30;;;0.40;;
40164;SDS011;25882;51.120;17.248;2022-07-10T10:04:11;1.75;;;0.57;;
40164;SDS011;25882;51.120;17.248;2022-07-10T10:06:39;2.08;;;0.98;;
40164;SDS011;25882;51.120;17.248;2022-07-10T10:09:06;1.23;;;0.50;;
40164;SDS011;25882;51.120;17.248;2022-07-10T10:11:36;3.13;;;0.50;;
40164;SDS011;25882;51.120;17.248;2022-07-10T10:14:05;1.88;;;0.60;;
40164;SDS011;25882;51.120;17.248;2022-07-10T10:16:38;1.63;;;0.70;;
40164;SDS011;25882;51.120;17.248;2022-07-10T10:21:58;2.03;;;0.75;;
40164;SDS011;25882;51.120;17.248;2022-07-10T10:24:28;4.80;;;1.42;;
40164;SDS011;25882;51.120;17.248;2022-07-10T10:26:57;2.40;;;0.75;;
40164;SDS011;25882;51.120;17.248;2022-07-10T10:29:23;4.88;;;0.88;;
40164;SDS011;25882;51.120;17.248;2022-07-10T10:31:49;5.43;;;1.17;;
40164;SDS011;25882;51.120;17.248;2022-07-10T10:37:05;4.50;;;0.93;;
40164;SDS011;25882;51.120;17.248;2022-07-10T10:42:32;2.95;;;0.70;;
40164;SDS011;25882;51.120;17.248;2022-07-10T10:48:04;4.28;;;0.93;;
40164;SDS011;25882;51.120;17.248;2022-07-10T10:50:38;1.67;;;0.60;;
40164;SDS011;25882;51.120;17.248;2022-07-10T10:53:13;2.53;;;0.70;;
40164;SDS011;25882;51.120;17.248;2022-07-10T10:55:41;1.92;;;0.73;;
40164;SDS011;25882;51.120;17.248;2022-07-10T10:58:45;1.48;;;0.70;;
40164;SDS011;25882;51.120;17.248;2022-07-10T11:01:23;3.92;;;0.70;;
40164;SDS011;25882;51.120;17.248;2022-07-10T11:06:43;0.95;;;0.55;;
40164;SDS011;25882;51.120;17.248;2022-07-10T11:09:28;1.65;;;0.70;;
40164;SDS011;25882;51.120;17.248;2022-07-10T11:12:02;2.47;;;0.77;;
40164;SDS011;25882;51.120;17.248;2022-07-10T11:14:31;2.97;;;0.80;;
40164;SDS011;25882;51.120;17.248;2022-07-10T11:16:58;2.45;;;1.20;;
40164;SDS011;25882;51.120;17.248;2022-07-10T11:19:25;3.63;;;0.60;;
40164;SDS011;25882;51.120;17.248;2022-07-10T11:21:58;3.55;;;0.73;;
40164;SDS011;25882;51.120;17.248;2022-07-10T11:24:40;1.90;;;0.60;;
40164;SDS011;25882;51.120;17.248;2022-07-10T11:30:20;4.18;;;1.05;;
40164;SDS011;25882;51.120;17.248;2022-07-10T11:32:56;3.15;;;0.50;;
40164;SDS011;25882;51.120;17.248;2022-07-10T11:35:38;4.05;;;1.15;;
40164;SDS011;25882;51.120;17.248;2022-07-10T11:38:09;5.60;;;1.45;;
40164;SDS011;25882;51.120;17.248;2022-07-10T11:40:42;2.30;;;1.02;;
40164;SDS011;25882;51.120;17.248;2022-07-10T11:43:13;2.97;;;1.02;;
40164;SDS011;25882;51.120;17.248;2022-07-10T11:45:43;1.58;;;0.60;;
40164;SDS011;25882;51.120;17.248;2022-07-10T11:48:16;1.27;;;0.50;;
40164;SDS011;25882;51.120;17.248;2022-07-10T11:50:44;2.22;;;0.60;;
40164;SDS011;25882;51.120;17.248;2022-07-10T11:53:11;1.98;;;1.15;;
40164;SDS011;25882;51.120;17.248;2022-07-10T11:55:38;3.78;;;0.68;;
40164;SDS011;25882;51.120;17.248;2022-07-10T12:00:42;1.00;;;0.50;;
40164;SDS011;25882;51.120;17.248;2022-07-10T12:03:19;0.20;;;0.20;;
40164;SDS011;25882;51.120;17.248;2022-07-10T12:05:51;1.10;;;0.50;;
40164;SDS011;25882;51.120;17.248;2022-07-10T12:08:19;2.20;;;0.80;;
40164;SDS011;25882;51.120;17.248;2022-07-10T12:10:53;0.95;;;0.38;;
40164;SDS011;25882;51.120;17.248;2022-07-10T12:13:19;2.35;;;0.40;;
40164;SDS011;25882;51.120;17.248;2022-07-10T12:15:46;1.60;;;0.40;;
40164;SDS011;25882;51.120;17.248;2022-07-10T12:18:15;2.75;;;0.50;;
40164;SDS011;25882;51.120;17.248;2022-07-10T12:20:43;1.67;;;0.65;;
40164;SDS011;25882;51.120;17.248;2022-07-10T12:23:14;1.02;;;0.50;;
40164;SDS011;25882;51.120;17.248;2022-07-10T12:25:43;1.27;;;0.50;;
40164;SDS011;25882;51.120;17.248;2022-07-10T12:28:12;1.67;;;0.60;;
40164;SDS011;25882;51.120;17.248;2022-07-10T12:30:43;2.00;;;0.60;;
40164;SDS011;25882;51.120;17.248;2022-07-10T12:33:12;4.10;;;0.95;;
40164;SDS011;25882;51.120;17.248;2022-07-10T12:35:48;3.28;;;0.65;;
40164;SDS011;25882;51.120;17.248;2022-07-10T12:38:16;3.55;;;0.82;;
40164;SDS011;25882;51.120;17.248;2022-07-10T12:40:45;5.10;;;3.13;;
40164;SDS011;25882;51.120;17.248;2022-07-10T12:43:27;7.07;;;2.75;;
40164;SDS011;25882;51.120;17.248;2022-07-10T12:46:13;6.97;;;4.13;;
40164;SDS011;25882;51.120;17.248;2022-07-10T12:51:29;6.32;;;3.67;;
40164;SDS011;25882;51.120;17.248;2022-07-10T12:53:56;5.40;;;2.30;;
40164;SDS011;25882;51.120;17.248;2022-07-10T12:56:26;4.85;;;1.33;;
40164;SDS011;25882;51.120;17.248;2022-07-10T12:58:55;2.60;;;1.00;;
40164;SDS011;25882;51.120;17.248;2022-07-10T13:01:21;6.97;;;2.08;;
40164;SDS011;25882;51.120;17.248;2022-07-10T13:03:47;2.70;;;0.90;;
40164;SDS011;25882;51.120;17.248;2022-07-10T13:06:25;4.15;;;0.90;;
40164;SDS011;25882;51.120;17.248;2022-07-10T13:08:53;2.10;;;0.70;;
40164;SDS011;25882;51.120;17.248;2022-07-10T13:11:19;4.45;;;0.95;;
40164;SDS011;25882;51.120;17.248;2022-07-10T13:13:46;2.08;;;0.77;;
40164;SDS011;25882;51.120;17.248;2022-07-10T13:16:14;4.25;;;1.17;;
40164;SDS011;25882;51.120;17.248;2022-07-10T13:18:41;3.97;;;1.23;;
40164;SDS011;25882;51.120;17.248;2022-07-10T13:21:08;3.42;;;0.80;;
40164;SDS011;25882;51.120;17.248;2022-07-10T13:23:36;4.07;;;0.90;;
40164;SDS011;25882;51.120;17.248;2022-07-10T13:26:03;2.83;;;0.80;;
40164;SDS011;25882;51.120;17.248;2022-07-10T13:28:32;3.45;;;1.13;;
40164;SDS011;25882;51.120;17.248;2022-07-10T13:30:58;3.75;;;1.00;;
40164;SDS011;25882;51.120;17.248;2022-07-10T13:33:26;2.70;;;0.80;;
40164;SDS011;25882;51.120;17.248;2022-07-10T13:35:54;3.50;;;1.02;;
40164;SDS011;25882;51.120;17.248;2022-07-10T13:38:24;4.50;;;1.40;;
40164;SDS011;25882;51.120;17.248;2022-07-10T13:40:50;3.33;;;1.38;;
40164;SDS011;25882;51.120;17.248;2022-07-10T13:43:17;3.78;;;0.80;;
40164;SDS011;25882;51.120;17.248;2022-07-10T13:45:43;3.50;;;1.23;;
40164;SDS011;25882;51.120;17.248;2022-07-10T13:48:09;3.05;;;1.40;;
40164;SDS011;25882;51.120;17.248;2022-07-10T13:50:38;3.92;;;1.00;;
40164;SDS011;25882;51.120;17.248;2022-07-10T13:53:04;3.75;;;1.10;;
40164;SDS011;25882;51.120;17.248;2022-07-10T13:55:30;2.22;;;1.50;;
40164;SDS011;25882;51.120;17.248;2022-07-10T13:57:58;4.00;;;0.98;;
40164;SDS011;25882;51.120;17.248;2022-07-10T14:00:25;3.58;;;1.30;;
40164;SDS011;25882;51.120;17.248;2022-07-10T14:02:51;4.97;;;1.00;;
40164;SDS011;25882;51.120;17.248;2022-07-10T14:05:17;4.78;;;1.48;;
40164;SDS011;25882;51.120;17.248;2022-07-10T14:07:45;6.63;;;2.50;;
40164;SDS011;25882;51.120;17.248;2022-07-10T14:10:11;5.05;;;1.67;;
40164;SDS011;25882;51.120;17.248;2022-07-10T14:12:37;4.72;;;0.90;;
40164;SDS011;25882;51.120;17.248;2022-07-10T14:15:04;3.10;;;0.95;;
40164;SDS011;25882;51.120;17.248;2022-07-10T14:17:30;3.70;;;2.28;;
40164;SDS011;25882;51.120;17.248;2022-07-10T14:19:57;3.47;;;0.80;;
40164;SDS011;25882;51.120;17.248;2022-07-10T14:22:23;2.22;;;0.82;;
40164;SDS011;25882;51.120;17.248;2022-07-10T14:24:51;6.47;;;1.30;;
40164;SDS011;25882;51.120;17.248;2022-07-10T14:27:20;2.30;;;1.50;;
40164;SDS011;25882;51.120;17.248;2022-07-10T14:29:53;2.92;;;0.68;;
40164;SDS011;25882;51.120;17.248;2022-07-10T14:32:20;2.55;;;0.70;;
40164;SDS011;25882;51.120;17.248;2022-07-10T14:34:46;3.20;;;0.88;;
40164;SDS011;25882;51.120;17.248;2022-07-10T14:37:13;4.57;;;1.00;;
40164;SDS011;25882;51.120;17.248;2022-07-10T14:39:39;2.50;;;0.90;;
40164;SDS011;25882;51.120;17.248;2022-07-10T14:42:07;2.90;;;0.90;;
40164;SDS011;25882;51.120;17.248;2022-07-10T14:44:35;4.70;;;0.70;;
40164;SDS011;25882;51.120;17.248;2022-07-10T14:47:01;2.78;;;0.77;;
40164;SDS011;25882;51.120;17.248;2022-07-10T14:49:28;3.97;;;1.00;;
40164;SDS011;25882;51.120;17.248;2022-07-10T14:51:55;3.58;;;1.00;;
40164;SDS011;25882;51.120;17.248;2022-07-10T14:54:22;3.67;;;0.93;;
40164;SDS011;25882;51.120;17.248;2022-07-10T14:56:49;3.95;;;1.42;;
40164;SDS011;25882;51.120;17.248;2022-07-10T14:59:18;3.17;;;1.08;;
40164;SDS011;25882;51.120;17.248;2022-07-10T15:01:45;5.60;;;1.38;;
40164;SDS011;25882;51.120;17.248;2022-07-10T15:04:14;6.85;;;1.45;;